Time;durP1;ratioP1;P1;durP2;ratioP2;P2;SDS_P1;SDS_P2;PMS_P1;PMS_P2;Temp;Humidity;BMP_temperature;BMP_pressure;BME280_temperature;BME280_humidity;BME280_pressure;Samples;Min_cycle;Max_cycle;Signal;HPM_P1;HPM_P2
2021/12/23 00:00:05;;;;;;;0.40;0.40;;;;;;;;;;1879552;76;26316;-29
2021/12/23 00:02:32;;;;;;;0.40;0.40;;;;;;;;;;1877690;76;26257;-31
2021/12/23 00:04:59;;;;;;;0.40;0.40;;;;;;;;;;1887082;76;27332;-29
2021/12/23 00:07:26;;;;;;;0.40;0.40;;;;;;;;;;1886702;76;26261;-32
2021/12/23 00:12:32;;;;;;;0.40;0.40;;;;;;;;;;1881042;76;26241;-29
2021/12/23 00:15:00;;;;;;;0.40;0.40;;;;;;;;;;1880956;76;26252;-30
2021/12/23 00:17:52;;;;;;;0.30;0.30;;;;;;;;;;1881150;76;25743;-33
2021/12/23 00:23:23;;;;;;;0.30;0.30;;;;;;;;;;1875535;76;26217;-30
2021/12/23 00:24:54;;;;;;;0.33;0.33;;;;;;;;;;1844267;77;26231;-33
2021/12/23 00:27:21;;;;;;;0.30;0.30;;;;;;;;;;1870084;76;26285;-29
2021/12/23 00:29:49;;;;;;;0.35;0.35;;;;;;;;;;1880827;76;26274;-31
2021/12/23 00:32:16;;;;;;;1.10;0.25;;;;;;;;;;1881061;76;26250;-31
2021/12/23 00:34:43;;;;;;;0.33;0.33;;;;;;;;;;1869681;75;26241;-30
2021/12/23 00:37:12;;;;;;;0.30;0.30;;;;;;;;;;1849290;77;26268;-29
2021/12/23 00:39:39;;;;;;;0.33;0.33;;;;;;;;;;1849147;77;26234;-29
2021/12/23 00:42:08;;;;;;;0.28;0.28;;;;;;;;;;1849169;77;26347;-30
2021/12/23 00:44:39;;;;;;;0.30;0.30;;;;;;;;;;1849248;77;26460;-33
2021/12/23 00:47:07;;;;;;;0.82;0.25;;;;;;;;;;1860324;75;26282;-29
2021/12/23 00:49:34;;;;;;;0.30;0.30;;;;;;;;;;1880152;76;26721;-30
2021/12/23 00:52:04;;;;;;;0.20;0.20;;;;;;;;;;1880768;76;26286;-31
2021/12/23 00:54:30;;;;;;;0.30;0.30;;;;;;;;;;1880834;76;26223;-29
2021/12/23 00:56:58;;;;;;;0.33;0.33;;;;;;;;;;1880796;76;26254;-31
2021/12/23 00:59:25;;;;;;;0.28;0.28;;;;;;;;;;1874280;76;26781;-30
2021/12/23 01:01:53;;;;;;;0.20;0.20;;;;;;;;;;1868436;77;26331;-33
2021/12/23 01:04:20;;;;;;;0.20;0.20;;;;;;;;;;1873962;75;26267;-29
2021/12/23 01:06:48;;;;;;;0.30;0.30;;;;;;;;;;1880959;76;26199;-31
2021/12/23 01:09:15;;;;;;;0.20;0.20;;;;;;;;;;1880792;76;26828;-30
2021/12/23 01:11:43;;;;;;;0.30;0.30;;;;;;;;;;1881129;76;26294;-30
2021/12/23 01:17:22;;;;;;;0.33;0.33;;;;;;;;;;1870495;76;26323;-33
2021/12/23 01:19:27;;;;;;;0.30;0.30;;;;;;;;;;1844898;78;26726;-32
2021/12/23 01:21:54;;;;;;;0.37;0.20;;;;;;;;;;1858307;76;26363;-28
2021/12/23 01:24:26;;;;;;;0.30;0.30;;;;;;;;;;1880853;76;26312;-28
2021/12/23 01:26:51;;;;;;;0.30;0.30;;;;;;;;;;1877393;76;26266;-29
2021/12/23 01:29:18;;;;;;;0.33;0.33;;;;;;;;;;1880906;76;26245;-28
2021/12/23 01:31:45;;;;;;;0.20;0.20;;;;;;;;;;1881043;76;26214;-29
2021/12/23 01:34:12;;;;;;;0.20;0.20;;;;;;;;;;1880902;76;26795;-29
2021/12/23 01:36:40;;;;;;;0.30;0.30;;;;;;;;;;1881058;76;26257;-27
2021/12/23 01:39:07;;;;;;;0.30;0.30;;;;;;;;;;1880949;76;26246;-28
2021/12/23 01:41:34;;;;;;;0.30;0.30;;;;;;;;;;1880981;76;26276;-28
2021/12/23 01:44:03;;;;;;;0.25;0.25;;;;;;;;;;1880853;76;26254;-28
2021/12/23 01:46:30;;;;;;;0.30;0.30;;;;;;;;;;1880988;76;26634;-28
2021/12/23 01:48:58;;;;;;;0.20;0.20;;;;;;;;;;1874608;76;26302;-28
2021/12/23 01:51:25;;;;;;;0.23;0.23;;;;;;;;;;1881055;76;26241;-30
2021/12/23 01:53:52;;;;;;;0.20;0.20;;;;;;;;;;1880915;76;26276;-28
2021/12/23 01:56:20;;;;;;;0.30;0.30;;;;;;;;;;1880950;76;25597;-28
2021/12/23 01:58:47;;;;;;;0.20;0.20;;;;;;;;;;1877653;76;26195;-29
2021/12/23 02:01:14;;;;;;;0.20;0.20;;;;;;;;;;1880959;76;26247;-29
2021/12/23 02:03:42;;;;;;;0.23;0.23;;;;;;;;;;1876332;76;26338;-28
2021/12/23 02:06:11;;;;;;;0.20;0.20;;;;;;;;;;1873573;76;26297;-33
2021/12/23 02:08:39;;;;;;;0.40;0.40;;;;;;;;;;1883693;76;26717;-30
2021/12/23 02:11:07;;;;;;;0.30;0.30;;;;;;;;;;1887143;76;26371;-28
2021/12/23 02:13:35;;;;;;;0.33;0.33;;;;;;;;;;1887202;76;26444;-30
2021/12/23 02:16:03;;;;;;;0.20;0.20;;;;;;;;;;1887135;76;26252;-28
2021/12/23 02:18:30;;;;;;;0.10;0.10;;;;;;;;;;1887276;76;26253;-28
2021/12/23 02:20:58;;;;;;;0.20;0.20;;;;;;;;;;1887132;76;26248;-30
2021/12/23 02:23:26;;;;;;;0.20;0.20;;;;;;;;;;1865325;76;26203;-29
2021/12/23 02:25:55;;;;;;;0.25;0.25;;;;;;;;;;1865049;77;26316;-29
2021/12/23 02:28:23;;;;;;;0.17;0.17;;;;;;;;;;1874018;76;26250;-28
2021/12/23 02:30:51;;;;;;;0.35;0.35;;;;;;;;;;1880988;76;26313;-29
2021/12/23 02:33:20;;;;;;;0.20;0.20;;;;;;;;;;1880989;76;26285;-29
2021/12/23 02:35:47;;;;;;;0.10;0.10;;;;;;;;;;1860305;75;26206;-29
2021/12/23 02:38:15;;;;;;;0.25;0.25;;;;;;;;;;1867162;75;26251;-29
2021/12/23 02:40:43;;;;;;;0.23;0.23;;;;;;;;;;1871134;76;26726;-28
2021/12/23 02:43:15;;;;;;;0.20;0.20;;;;;;;;;;1882943;75;26251;-31
2021/12/23 02:45:42;;;;;;;0.45;0.30;;;;;;;;;;1849419;77;26269;-28
2021/12/23 02:48:17;;;;;;;0.10;0.10;;;;;;;;;;1863455;76;26289;-28
2021/12/23 02:50:46;;;;;;;0.20;0.20;;;;;;;;;;1879944;76;26368;-30
2021/12/23 02:53:14;;;;;;;0.20;0.20;;;;;;;;;;1880743;76;26245;-29
2021/12/23 02:55:42;;;;;;;0.17;0.17;;;;;;;;;;1880935;76;26378;-30
2021/12/23 02:58:13;;;;;;;0.30;0.30;;;;;;;;;;1877683;76;26293;-32
2021/12/23 03:00:41;;;;;;;0.20;0.20;;;;;;;;;;1887301;76;26693;-29
2021/12/23 03:03:09;;;;;;;0.10;0.10;;;;;;;;;;1884490;76;26351;-29
2021/12/23 03:05:36;;;;;;;0.30;0.30;;;;;;;;;;1881121;76;26202;-30
2021/12/23 03:08:04;;;;;;;0.20;0.20;;;;;;;;;;1881019;76;26662;-29
2021/12/23 03:10:32;;;;;;;0.15;0.15;;;;;;;;;;1881174;76;26240;-29
2021/12/23 03:12:59;;;;;;;0.30;0.30;;;;;;;;;;1846740;76;26294;-30
2021/12/23 03:15:26;;;;;;;0.20;0.20;;;;;;;;;;1845070;78;26317;-28
2021/12/23 03:17:53;;;;;;;0.20;0.20;;;;;;;;;;1845186;78;26301;-30
2021/12/23 03:20:21;;;;;;;0.10;0.10;;;;;;;;;;1858666;75;26327;-28
2021/12/23 03:22:48;;;;;;;0.40;0.40;;;;;;;;;;1871636;76;26262;-29
2021/12/23 03:25:15;;;;;;;0.30;0.30;;;;;;;;;;1879782;76;26254;-32
2021/12/23 03:27:43;;;;;;;0.42;0.42;;;;;;;;;;1874294;75;26772;-30
2021/12/23 03:30:11;;;;;;;0.28;0.28;;;;;;;;;;1872797;76;26384;-30
2021/12/23 03:32:38;;;;;;;0.20;0.20;;;;;;;;;;1873263;76;26302;-32
2021/12/23 03:35:06;;;;;;;0.20;0.20;;;;;;;;;;1872818;76;26786;-33
2021/12/23 03:37:33;;;;;;;0.20;0.20;;;;;;;;;;1873475;76;26730;-30
2021/12/23 03:40:00;;;;;;;0.30;0.30;;;;;;;;;;1874031;76;26257;-29
2021/12/23 03:42:28;;;;;;;0.20;0.20;;;;;;;;;;1873940;76;26262;-28
2021/12/23 03:44:55;;;;;;;0.20;0.20;;;;;;;;;;1868171;76;26355;-29
2021/12/23 03:47:22;;;;;;;0.10;0.10;;;;;;;;;;1854329;77;26328;-30
2021/12/23 03:49:49;;;;;;;0.20;0.20;;;;;;;;;;1877516;76;25668;-28
2021/12/23 03:52:17;;;;;;;0.20;0.20;;;;;;;;;;1879864;76;26332;-30
2021/12/23 03:54:44;;;;;;;0.20;0.20;;;;;;;;;;1880970;76;26284;-28
2021/12/23 03:57:11;;;;;;;0.62;0.20;;;;;;;;;;1879147;76;26254;-28
2021/12/23 03:59:39;;;;;;;0.20;0.20;;;;;;;;;;1878987;76;26692;-32
2021/12/23 04:02:06;;;;;;;0.23;0.23;;;;;;;;;;1887213;76;26712;-28
2021/12/23 04:04:33;;;;;;;0.20;0.20;;;;;;;;;;1843242;76;27127;-29
2021/12/23 04:07:01;;;;;;;0.30;0.30;;;;;;;;;;1872231;75;26250;-30
2021/12/23 04:09:28;;;;;;;0.20;0.20;;;;;;;;;;1879019;76;26286;-28
2021/12/23 04:11:55;;;;;;;0.15;0.15;;;;;;;;;;1852701;77;26282;-31
2021/12/23 04:14:22;;;;;;;0.10;0.10;;;;;;;;;;1858273;77;26336;-29
2021/12/23 04:16:50;;;;;;;0.20;0.20;;;;;;;;;;1858461;77;26243;-29
2021/12/23 04:19:18;;;;;;;0.20;0.20;;;;;;;;;;1858036;77;26234;-28
2021/12/23 04:21:45;;;;;;;0.20;0.20;;;;;;;;;;1858371;77;26647;-28
2021/12/23 04:24:12;;;;;;;0.20;0.20;;;;;;;;;;1858128;77;26249;-30
2021/12/23 04:26:40;;;;;;;0.20;0.20;;;;;;;;;;1858140;77;26714;-30
2021/12/23 04:29:08;;;;;;;0.20;0.20;;;;;;;;;;1858086;76;26375;-28
2021/12/23 04:31:35;;;;;;;0.20;0.20;;;;;;;;;;1858242;77;26273;-29
2021/12/23 04:34:03;;;;;;;0.20;0.20;;;;;;;;;;1858660;76;26211;-30
2021/12/23 04:36:30;;;;;;;0.20;0.20;;;;;;;;;;1855643;76;26322;-28
2021/12/23 04:39:01;;;;;;;0.20;0.20;;;;;;;;;;1848927;77;26263;-30
2021/12/23 04:41:30;;;;;;;0.20;0.20;;;;;;;;;;1848908;77;26276;-28
2021/12/23 04:43:58;;;;;;;0.10;0.10;;;;;;;;;;1848826;77;26761;-30
2021/12/23 04:46:25;;;;;;;0.30;0.30;;;;;;;;;;1848901;77;26252;-28
2021/12/23 04:48:52;;;;;;;0.20;0.20;;;;;;;;;;1849075;77;26275;-29
2021/12/23 04:51:21;;;;;;;0.20;0.20;;;;;;;;;;1848800;77;26762;-29
2021/12/23 04:53:48;;;;;;;1.20;0.17;;;;;;;;;;1848922;77;26288;-29
2021/12/23 04:56:17;;;;;;;0.40;0.40;;;;;;;;;;1848919;77;26268;-28
2021/12/23 04:58:44;;;;;;;0.30;0.25;;;;;;;;;;1846969;76;26779;-28
2021/12/23 05:01:28;;;;;;;0.30;0.30;;;;;;;;;;1821055;79;26373;-30
2021/12/23 05:03:41;;;;;;;0.15;0.15;;;;;;;;;;1839969;77;26259;-30
2021/12/23 05:06:09;;;;;;;1.32;0.10;;;;;;;;;;1856185;77;26776;-28
2021/12/23 05:08:36;;;;;;;0.20;0.20;;;;;;;;;;1856050;77;26772;-29
2021/12/23 05:11:03;;;;;;;0.20;0.20;;;;;;;;;;1869264;76;26769;-30
2021/12/23 05:13:31;;;;;;;0.30;0.30;;;;;;;;;;1834293;77;26810;-29
2021/12/23 05:15:58;;;;;;;0.15;0.15;;;;;;;;;;1841276;77;26253;-30
2021/12/23 05:18:26;;;;;;;0.17;0.17;;;;;;;;;;1840036;77;26644;-29
2021/12/23 05:20:53;;;;;;;0.20;0.20;;;;;;;;;;1849069;77;26288;-31
2021/12/23 05:23:21;;;;;;;0.20;0.20;;;;;;;;;;1849097;77;26337;-28
2021/12/23 05:25:48;;;;;;;0.28;0.28;;;;;;;;;;1848964;77;26683;-31
2021/12/23 05:28:15;;;;;;;0.25;0.25;;;;;;;;;;1848846;77;26255;-28
2021/12/23 05:30:42;;;;;;;1.17;0.20;;;;;;;;;;1847147;77;26371;-29
2021/12/23 05:33:10;;;;;;;0.20;0.20;;;;;;;;;;1847156;77;26292;-29
2021/12/23 05:35:37;;;;;;;0.45;0.30;;;;;;;;;;1818433;79;26753;-29
2021/12/23 05:38:04;;;;;;;0.20;0.20;;;;;;;;;;1820567;77;26762;-29
2021/12/23 05:40:32;;;;;;;0.20;0.20;;;;;;;;;;1818450;79;27171;-29
2021/12/23 05:43:00;;;;;;;0.28;0.28;;;;;;;;;;1841357;77;26794;-30
2021/12/23 05:45:27;;;;;;;0.20;0.20;;;;;;;;;;1841912;77;26355;-29
2021/12/23 05:47:54;;;;;;;0.60;0.60;;;;;;;;;;1836386;77;26326;-29
2021/12/23 05:50:27;;;;;;;0.20;0.20;;;;;;;;;;1837181;77;26284;-28
2021/12/23 05:52:52;;;;;;;0.20;0.20;;;;;;;;;;1845300;77;26368;-29
2021/12/23 05:55:21;;;;;;;0.28;0.28;;;;;;;;;;1843355;77;27327;-28
2021/12/23 05:57:49;;;;;;;0.10;0.10;;;;;;;;;;1848331;77;26713;-30
2021/12/23 06:00:17;;;;;;;0.33;0.20;;;;;;;;;;1839584;77;26252;-28
2021/12/23 06:02:45;;;;;;;0.30;0.30;;;;;;;;;;1839601;77;26282;-30
2021/12/23 06:05:12;;;;;;;0.20;0.20;;;;;;;;;;1839360;77;26279;-30
2021/12/23 06:07:41;;;;;;;0.20;0.20;;;;;;;;;;1845763;77;25646;-28
2021/12/23 06:10:08;;;;;;;1.27;0.30;;;;;;;;;;1842814;77;26260;-28
2021/12/23 06:12:36;;;;;;;0.75;0.30;;;;;;;;;;1850826;75;26285;-28
2021/12/23 06:15:04;;;;;;;0.23;0.23;;;;;;;;;;1873443;76;26242;-29
2021/12/23 06:17:31;;;;;;;0.33;0.33;;;;;;;;;;1880999;76;26262;-33
2021/12/23 06:19:59;;;;;;;0.85;0.30;;;;;;;;;;1880952;76;26290;-32
2021/12/23 06:22:26;;;;;;;1.55;0.40;;;;;;;;;;1881078;76;26250;-31
2021/12/23 06:24:54;;;;;;;2.75;0.40;;;;;;;;;;1881040;76;26275;-29
2021/12/23 06:27:21;;;;;;;0.20;0.20;;;;;;;;;;1875855;75;26277;-29
2021/12/23 06:29:49;;;;;;;0.68;0.40;;;;;;;;;;1862766;75;26292;-31
2021/12/23 06:32:16;;;;;;;1.52;0.40;;;;;;;;;;1874020;75;26239;-29
2021/12/23 06:34:44;;;;;;;0.65;0.40;;;;;;;;;;1870142;75;26702;-32
2021/12/23 06:37:11;;;;;;;0.30;0.30;;;;;;;;;;1873169;75;26247;-29
2021/12/23 06:39:39;;;;;;;0.75;0.50;;;;;;;;;;1877702;76;26309;-33
2021/12/23 06:42:07;;;;;;;4.78;0.40;;;;;;;;;;1873750;75;26274;-28
2021/12/23 06:44:35;;;;;;;0.98;0.40;;;;;;;;;;1860146;75;26790;-29
2021/12/23 06:47:02;;;;;;;1.95;0.47;;;;;;;;;;1849056;77;26261;-29
2021/12/23 06:49:35;;;;;;;0.93;0.50;;;;;;;;;;1860796;75;26217;-45
2021/12/23 06:52:00;;;;;;;2.50;0.40;;;;;;;;;;1860122;75;28647;-48
2021/12/23 06:54:27;;;;;;;1.55;0.40;;;;;;;;;;1875018;76;26289;-44
2021/12/23 06:56:54;;;;;;;1.17;0.50;;;;;;;;;;1838186;76;31505;-46
2021/12/23 06:59:22;;;;;;;1.50;0.50;;;;;;;;;;1853316;76;28256;-42
2021/12/23 07:01:49;;;;;;;1.35;0.60;;;;;;;;;;1865782;75;26271;-45
2021/12/23 07:04:19;;;;;;;2.20;0.42;;;;;;;;;;1875434;76;26244;-43
2021/12/23 07:06:52;;;;;;;1.00;0.60;;;;;;;;;;1868234;76;26203;-46
2021/12/23 07:09:16;;;;;;;6.37;0.60;;;;;;;;;;1874042;76;25662;-46
2021/12/23 07:11:43;;;;;;;2.15;0.50;;;;;;;;;;1879478;76;26206;-47
2021/12/23 07:14:10;;;;;;;0.90;0.60;;;;;;;;;;1859926;76;26769;-46
2021/12/23 07:16:40;;;;;;;0.45;0.45;;;;;;;;;;1845168;76;26808;-46
2021/12/23 07:19:07;;;;;;;2.20;0.45;;;;;;;;;;1852612;76;26269;-47
2021/12/23 07:21:34;;;;;;;1.20;0.60;;;;;;;;;;1856626;77;26774;-47
2021/12/23 07:24:03;;;;;;;3.60;0.60;;;;;;;;;;1850400;77;28476;-42
2021/12/23 07:26:30;;;;;;;2.10;0.90;;;;;;;;;;1853016;77;27339;-48
2021/12/23 07:28:58;;;;;;;4.53;0.80;;;;;;;;;;1845619;76;26254;-46
2021/12/23 07:31:25;;;;;;;3.30;1.00;;;;;;;;;;1844586;76;28079;-54
2021/12/23 07:33:52;;;;;;;4.53;0.95;;;;;;;;;;1848396;76;26355;-58
2021/12/23 07:36:22;;;;;;;4.83;0.80;;;;;;;;;;1805273;77;26403;-43
2021/12/23 07:38:50;;;;;;;4.70;1.00;;;;;;;;;;1802397;79;26790;-43
2021/12/23 07:41:17;;;;;;;3.27;0.93;;;;;;;;;;1806845;78;26351;-44
2021/12/23 07:43:57;;;;;;;4.45;0.70;;;;;;;;;;1795892;79;26247;-45
2021/12/23 07:46:14;;;;;;;1.65;0.65;;;;;;;;;;1803770;79;26319;-43
2021/12/23 07:48:41;;;;;;;2.85;0.75;;;;;;;;;;1803442;79;26322;-44
2021/12/23 07:51:08;;;;;;;4.47;0.90;;;;;;;;;;1805390;79;26668;-40
2021/12/23 07:53:36;;;;;;;3.70;0.90;;;;;;;;;;1822475;78;26315;-46
2021/12/23 07:56:03;;;;;;;9.35;0.72;;;;;;;;;;1802316;79;26355;-45
2021/12/23 07:58:30;;;;;;;4.50;0.70;;;;;;;;;;1805936;79;25464;-40
2021/12/23 08:00:58;;;;;;;3.83;1.00;;;;;;;;;;1793803;78;28385;-44
2021/12/23 08:03:25;;;;;;;4.37;0.70;;;;;;;;;;1806680;78;26287;-48
2021/12/23 08:05:53;;;;;;;2.45;0.70;;;;;;;;;;1813680;78;26334;-45
2021/12/23 08:08:20;;;;;;;2.77;0.68;;;;;;;;;;1798444;79;26428;-41
2021/12/23 08:10:50;;;;;;;1.95;0.88;;;;;;;;;;1804593;79;26821;-40
2021/12/23 08:13:18;;;;;;;2.85;0.72;;;;;;;;;;1805363;78;26357;-51
2021/12/23 08:15:45;;;;;;;5.22;0.60;;;;;;;;;;1817891;78;26318;-50
2021/12/23 08:18:12;;;;;;;5.62;1.02;;;;;;;;;;1813741;78;28745;-44
2021/12/23 08:20:40;;;;;;;2.15;0.70;;;;;;;;;;1825971;78;26705;-48
2021/12/23 08:23:07;;;;;;;1.17;0.53;;;;;;;;;;1824436;78;26345;-45
2021/12/23 08:25:35;;;;;;;2.22;0.60;;;;;;;;;;1812250;78;26284;-46
2021/12/23 08:28:03;;;;;;;1.57;0.47;;;;;;;;;;1814417;78;26703;-43
2021/12/23 08:30:31;;;;;;;2.10;0.60;;;;;;;;;;1825931;78;26391;-49
2021/12/23 08:32:59;;;;;;;0.45;0.45;;;;;;;;;;1813941;78;26758;-43
2021/12/23 08:35:26;;;;;;;0.88;0.53;;;;;;;;;;1814375;78;26312;-42
2021/12/23 08:37:53;;;;;;;2.20;0.50;;;;;;;;;;1825876;78;26789;-46
2021/12/23 08:40:22;;;;;;;1.30;0.60;;;;;;;;;;1810495;77;26836;-42
2021/12/23 08:42:50;;;;;;;2.40;0.50;;;;;;;;;;1823651;78;26326;-45
2021/12/23 08:45:18;;;;;;;0.75;0.40;;;;;;;;;;1819275;78;26366;-42
2021/12/23 08:47:46;;;;;;;2.77;0.60;;;;;;;;;;1815335;78;26255;-41
2021/12/23 08:50:14;;;;;;;1.47;0.50;;;;;;;;;;1825493;78;26271;-45
2021/12/23 08:52:42;;;;;;;2.47;0.50;;;;;;;;;;1818506;78;26251;-42
2021/12/23 08:55:09;;;;;;;1.75;0.50;;;;;;;;;;1811009;78;26258;-45
2021/12/23 08:57:37;;;;;;;0.30;0.30;;;;;;;;;;1824648;78;27347;-47
2021/12/23 09:00:06;;;;;;;0.75;0.35;;;;;;;;;;1820888;78;26264;-43
2021/12/23 09:02:34;;;;;;;0.75;0.60;;;;;;;;;;1826048;78;26270;-46
2021/12/23 09:05:01;;;;;;;0.40;0.40;;;;;;;;;;1818949;78;26729;-49
2021/12/23 09:07:28;;;;;;;0.65;0.42;;;;;;;;;;1816048;78;26314;-40
2021/12/23 09:09:56;;;;;;;2.05;0.60;;;;;;;;;;1820377;77;26328;-46
2021/12/23 09:12:24;;;;;;;1.40;0.40;;;;;;;;;;1851589;77;26357;-51
2021/12/23 09:14:51;;;;;;;0.62;0.40;;;;;;;;;;1815025;77;26330;-56
2021/12/23 09:17:19;;;;;;;0.60;0.60;;;;;;;;;;1844589;77;26291;-59
2021/12/23 09:19:46;;;;;;;0.40;0.40;;;;;;;;;;1821243;77;26451;-43
2021/12/23 09:22:14;;;;;;;0.30;0.30;;;;;;;;;;1848477;77;26286;-47
2021/12/23 09:24:45;;;;;;;3.65;0.40;;;;;;;;;;1849439;77;26651;-42
2021/12/23 09:34:59;;;;;;;0.90;0.40;;;;;;;;;;1846180;77;26435;-40
2021/12/23 09:37:28;;;;;;;0.42;0.42;;;;;;;;;;1849305;77;26270;-38
2021/12/23 09:39:57;;;;;;;0.50;0.50;;;;;;;;;;1826203;77;26353;-36
2021/12/23 09:42:26;;;;;;;0.40;0.40;;;;;;;;;;1848970;77;26299;-36
2021/12/23 09:44:58;;;;;;;0.37;0.37;;;;;;;;;;1843749;77;26268;-36
2021/12/23 09:47:25;;;;;;;1.55;0.42;;;;;;;;;;1848364;77;26268;-36
2021/12/23 09:49:53;;;;;;;0.35;0.35;;;;;;;;;;1848935;77;26216;-37
2021/12/23 09:52:21;;;;;;;2.27;0.37;;;;;;;;;;1845253;77;26346;-39
2021/12/23 09:54:49;;;;;;;0.53;0.30;;;;;;;;;;1842527;77;26256;-38
2021/12/23 09:57:16;;;;;;;0.30;0.30;;;;;;;;;;1848168;77;26742;-44
2021/12/23 09:59:44;;;;;;;0.30;0.30;;;;;;;;;;1845828;77;26919;-41
2021/12/23 10:02:11;;;;;;;1.02;0.40;;;;;;;;;;1818051;78;30048;-44
2021/12/23 10:04:39;;;;;;;1.22;0.30;;;;;;;;;;1829647;77;26667;-52
2021/12/23 10:07:06;;;;;;;0.33;0.20;;;;;;;;;;1828473;77;26680;-51
2021/12/23 10:09:51;;;;;;;0.25;0.20;;;;;;;;;;1850702;77;26248;-44
2021/12/23 10:27:02;;;;;;;0.93;0.28;;;;;;;;;;1827496;78;26264;-49
2021/12/23 10:31:29;;;;;;;0.30;0.30;;;;;;;;;;1835027;78;26812;-46
2021/12/23 10:39:27;;;;;;;0.30;0.30;;;;;;;;;;1821702;78;26778;-41
2021/12/23 10:41:56;;;;;;;0.20;0.20;;;;;;;;;;1838129;78;26300;-41
2021/12/23 10:44:30;;;;;;;0.23;0.23;;;;;;;;;;1832104;76;26275;-42
2021/12/23 10:46:59;;;;;;;0.30;0.30;;;;;;;;;;1833804;76;26755;-45
2021/12/23 10:49:32;;;;;;;0.30;0.30;;;;;;;;;;1833047;76;26404;-43
2021/12/23 10:52:08;;;;;;;0.20;0.20;;;;;;;;;;1834628;77;26409;-44
2021/12/23 11:00:20;;;;;;;1.95;0.20;;;;;;;;;;1806647;77;26382;-43
2021/12/23 11:03:15;;;;;;;0.90;0.30;;;;;;;;;;1823259;78;26249;-50
2021/12/23 11:05:42;;;;;;;0.20;0.20;;;;;;;;;;1840919;78;26303;-46
2021/12/23 11:08:17;;;;;;;0.50;0.28;;;;;;;;;;1823492;78;26764;-41
2021/12/23 11:38:23;;;;;;;0.37;0.37;;;;;;;;;;1876041;75;26246;-42
2021/12/23 11:45:49;;;;;;;0.90;0.90;;;;;;;;;;1879473;76;26240;-47
2021/12/23 11:48:16;;;;;;;3.87;1.20;;;;;;;;;;1872204;75;26314;-45
2021/12/23 11:53:27;;;;;;;1.30;1.30;;;;;;;;;;1865026;75;26256;-46
2021/12/23 11:55:55;;;;;;;2.67;1.50;;;;;;;;;;1881015;75;26801;-46
2021/12/23 11:58:26;;;;;;;1.42;1.30;;;;;;;;;;1880686;76;26313;-45
2021/12/23 12:01:04;;;;;;;2.60;1.75;;;;;;;;;;1879858;75;26324;-50
2021/12/23 12:03:33;;;;;;;4.35;1.50;;;;;;;;;;1884564;74;26242;-48
2021/12/23 12:06:13;;;;;;;1.82;1.57;;;;;;;;;;1862557;75;26239;-47
2021/12/23 12:08:41;;;;;;;2.30;1.60;;;;;;;;;;1870406;76;26259;-47
2021/12/23 12:11:19;;;;;;;1.67;1.57;;;;;;;;;;1878621;75;26268;-42
2021/12/23 12:13:47;;;;;;;1.80;1.70;;;;;;;;;;1871046;75;26415;-44
2021/12/23 12:16:27;;;;;;;5.53;2.22;;;;;;;;;;1879239;76;26302;-44
2021/12/23 12:18:55;;;;;;;7.95;2.65;;;;;;;;;;1880580;75;26756;-44
2021/12/23 12:21:24;;;;;;;4.33;2.52;;;;;;;;;;1874797;75;26445;-45
2021/12/23 12:24:08;;;;;;;5.83;2.00;;;;;;;;;;1871040;75;25890;-48
2021/12/23 12:26:37;;;;;;;5.47;2.30;;;;;;;;;;1876339;75;26191;-43
2021/12/23 12:29:07;;;;;;;9.05;2.70;;;;;;;;;;1866619;75;26336;-48
2021/12/23 12:31:41;;;;;;;8.15;2.75;;;;;;;;;;1875444;75;26254;-42
2021/12/23 12:34:09;;;;;;;8.23;3.00;;;;;;;;;;1879617;75;26223;-44
2021/12/23 12:36:41;;;;;;;8.08;2.58;;;;;;;;;;1873375;75;26299;-50
2021/12/23 12:39:10;;;;;;;10.13;2.80;;;;;;;;;;1874459;75;26375;-46
2021/12/23 12:41:38;;;;;;;8.60;2.80;;;;;;;;;;1874515;75;26265;-51
2021/12/23 12:44:21;;;;;;;7.08;2.40;;;;;;;;;;1871674;75;26239;-46
2021/12/23 12:46:48;;;;;;;9.83;2.70;;;;;;;;;;1874671;76;26287;-44
2021/12/23 12:49:23;;;;;;;9.35;2.50;;;;;;;;;;1878019;75;26437;-45
2021/12/23 12:51:45;;;;;;;10.13;2.20;;;;;;;;;;1874244;76;26322;-47
2021/12/23 12:54:15;;;;;;;4.72;2.05;;;;;;;;;;1876937;75;26364;-48
2021/12/23 12:56:46;;;;;;;4.03;1.95;;;;;;;;;;1876053;76;26262;-44
2021/12/23 12:59:15;;;;;;;7.08;2.15;;;;;;;;;;1877361;75;26275;-47
2021/12/23 13:01:47;;;;;;;4.70;1.87;;;;;;;;;;1873366;75;26283;-45
2021/12/23 13:04:25;;;;;;;3.55;1.90;;;;;;;;;;1875527;76;27336;-44
2021/12/23 13:06:53;;;;;;;3.60;1.72;;;;;;;;;;1878539;76;26313;-44
2021/12/23 13:09:25;;;;;;;3.30;1.60;;;;;;;;;;1878903;75;26632;-46
2021/12/23 13:11:55;;;;;;;2.72;1.72;;;;;;;;;;1878875;75;26347;-44
2021/12/23 13:14:24;;;;;;;3.40;1.60;;;;;;;;;;1885288;75;26286;-45
2021/12/23 13:16:55;;;;;;;4.75;1.75;;;;;;;;;;1860611;76;26874;-44
2021/12/23 13:19:24;;;;;;;2.92;1.52;;;;;;;;;;1856106;76;26755;-46
2021/12/23 13:21:54;;;;;;;1.90;1.30;;;;;;;;;;1859448;76;26682;-45
2021/12/23 13:24:23;;;;;;;5.55;1.62;;;;;;;;;;1856365;76;26329;-44
2021/12/23 13:26:51;;;;;;;4.05;1.30;;;;;;;;;;1857190;76;26313;-47
2021/12/23 13:29:19;;;;;;;3.45;1.47;;;;;;;;;;1858652;76;26253;-44
2021/12/23 13:31:46;;;;;;;2.15;1.10;;;;;;;;;;1845409;77;26277;-46
2021/12/23 13:34:21;;;;;;;4.53;1.30;;;;;;;;;;1851364;77;26242;-44
2021/12/23 13:36:50;;;;;;;2.83;1.20;;;;;;;;;;1851662;76;26270;-45
2021/12/23 13:39:19;;;;;;;7.00;1.90;;;;;;;;;;1861914;76;26247;-44
2021/12/23 13:41:57;;;;;;;3.65;1.15;;;;;;;;;;1857778;76;26270;-47
2021/12/23 13:44:35;;;;;;;2.75;1.62;;;;;;;;;;1857570;76;26250;-48
2021/12/23 13:47:04;;;;;;;1.80;1.10;;;;;;;;;;1857574;77;26252;-50
2021/12/23 13:49:49;;;;;;;4.10;1.30;;;;;;;;;;1856040;76;26325;-49
2021/12/23 13:52:30;;;;;;;1.22;1.10;;;;;;;;;;1856671;76;26325;-45
2021/12/23 13:54:59;;;;;;;1.90;1.12;;;;;;;;;;1851849;77;26315;-45
2021/12/23 13:57:26;;;;;;;1.40;1.10;;;;;;;;;;1842034;76;26297;-44
2021/12/23 13:59:54;;;;;;;1.07;0.98;;;;;;;;;;1856335;77;26754;-48
2021/12/23 14:02:25;;;;;;;2.15;1.10;;;;;;;;;;1842424;77;26338;-46
2021/12/23 14:04:54;;;;;;;2.58;1.20;;;;;;;;;;1856301;76;26268;-44
2021/12/23 14:07:22;;;;;;;2.10;1.10;;;;;;;;;;1841861;77;26630;-46
2021/12/23 14:09:57;;;;;;;1.60;1.00;;;;;;;;;;1857883;76;26773;-46
2021/12/23 14:12:26;;;;;;;2.00;0.80;;;;;;;;;;1856618;76;26278;-45
2021/12/23 14:14:58;;;;;;;1.65;0.90;;;;;;;;;;1823617;76;26347;-46
2021/12/23 14:17:29;;;;;;;3.72;0.90;;;;;;;;;;1876602;75;26282;-43
2021/12/23 14:23:11;;;;;;;0.70;0.70;;;;;;;;;;1868906;75;26332;-49
2021/12/23 14:25:14;;;;;;;1.35;0.90;;;;;;;;;;1870941;75;26208;-48
2021/12/23 14:27:42;;;;;;;0.90;0.90;;;;;;;;;;1867053;75;26279;-44
2021/12/23 14:30:10;;;;;;;0.70;0.70;;;;;;;;;;1870560;75;26287;-44
2021/12/23 14:32:37;;;;;;;1.87;0.90;;;;;;;;;;1870982;75;26313;-44
2021/12/23 14:35:05;;;;;;;1.37;0.88;;;;;;;;;;1880731;75;26360;-49
2021/12/23 14:37:32;;;;;;;1.87;0.75;;;;;;;;;;1882422;75;26254;-46
2021/12/23 14:39:59;;;;;;;0.80;0.80;;;;;;;;;;1880322;75;26243;-44
2021/12/23 14:42:29;;;;;;;2.37;0.90;;;;;;;;;;1875553;75;26301;-44
2021/12/23 14:44:59;;;;;;;1.50;0.70;;;;;;;;;;1869110;75;26222;-44
2021/12/23 14:47:29;;;;;;;0.80;0.70;;;;;;;;;;1872213;75;26305;-44
2021/12/23 14:52:44;;;;;;;0.60;0.60;;;;;;;;;;1887159;75;26281;-45
2021/12/23 14:55:10;;;;;;;0.70;0.68;;;;;;;;;;1878926;76;26674;-46
2021/12/23 14:57:38;;;;;;;0.68;0.68;;;;;;;;;;1880335;75;26954;-44
2021/12/23 15:00:07;;;;;;;0.68;0.68;;;;;;;;;;1869261;75;26313;-45
2021/12/23 15:02:34;;;;;;;0.42;0.42;;;;;;;;;;1887455;75;26253;-45
2021/12/23 15:05:03;;;;;;;0.45;0.45;;;;;;;;;;1880929;75;26262;-44
2021/12/23 15:07:32;;;;;;;0.45;0.45;;;;;;;;;;1873398;75;26708;-46
2021/12/23 15:09:59;;;;;;;0.45;0.45;;;;;;;;;;1871547;75;26254;-47
2021/12/23 15:12:27;;;;;;;0.50;0.50;;;;;;;;;;1875557;75;26237;-44
2021/12/23 15:14:57;;;;;;;0.53;0.53;;;;;;;;;;1882812;75;26313;-49
2021/12/23 15:17:30;;;;;;;0.40;0.40;;;;;;;;;;1864448;75;26372;-46
2021/12/23 15:19:55;;;;;;;0.40;0.40;;;;;;;;;;1840075;76;26602;-45
2021/12/23 15:22:24;;;;;;;0.50;0.50;;;;;;;;;;1848288;76;27213;-46
2021/12/23 15:25:05;;;;;;;0.40;0.40;;;;;;;;;;1848057;76;26308;-47
2021/12/23 15:27:38;;;;;;;0.60;0.60;;;;;;;;;;1850515;76;26262;-44
2021/12/23 15:30:05;;;;;;;0.50;0.50;;;;;;;;;;1848995;76;26195;-49
2021/12/23 15:32:33;;;;;;;0.50;0.50;;;;;;;;;;1843850;76;26344;-48
2021/12/23 15:35:05;;;;;;;0.50;0.50;;;;;;;;;;1851029;77;26308;-45
2021/12/23 15:37:32;;;;;;;0.50;0.50;;;;;;;;;;1857399;76;26274;-45
2021/12/23 15:40:00;;;;;;;1.27;0.60;;;;;;;;;;1858047;76;26348;-45
2021/12/23 15:42:28;;;;;;;0.50;0.50;;;;;;;;;;1848620;77;26772;-43
2021/12/23 15:44:55;;;;;;;0.30;0.30;;;;;;;;;;1795925;78;26730;-46
2021/12/23 15:47:24;;;;;;;0.98;0.50;;;;;;;;;;1821506;78;26701;-44
2021/12/23 15:49:54;;;;;;;0.40;0.40;;;;;;;;;;1808143;79;26389;-47
2021/12/23 15:52:21;;;;;;;0.42;0.42;;;;;;;;;;1808224;79;26318;-45
2021/12/23 15:54:49;;;;;;;0.33;0.33;;;;;;;;;;1799817;79;26397;-47
2021/12/23 15:57:16;;;;;;;0.42;0.42;;;;;;;;;;1807151;79;26299;-49
2021/12/23 15:59:45;;;;;;;0.60;0.50;;;;;;;;;;1808582;79;28135;-47
2021/12/23 16:02:13;;;;;;;0.30;0.30;;;;;;;;;;1807183;79;26646;-47
2021/12/23 16:04:57;;;;;;;0.50;0.50;;;;;;;;;;1822687;78;26330;-43
2021/12/23 16:07:19;;;;;;;0.30;0.30;;;;;;;;;;1779736;79;26324;-47
2021/12/23 16:09:48;;;;;;;0.30;0.30;;;;;;;;;;1803082;79;26360;-44
2021/12/23 16:12:16;;;;;;;0.30;0.30;;;;;;;;;;1807112;79;26351;-47
2021/12/23 16:14:45;;;;;;;0.20;0.20;;;;;;;;;;1806897;79;26271;-43